createdAt,value
2018-03-23T00:03:12.376Z,41.90
2018-03-23T00:05:39.986Z,40.70
2018-03-23T00:08:07.559Z,40.13
2018-03-23T00:10:35.798Z,38.53
2018-03-23T00:13:04.101Z,41.90
2018-03-23T00:15:32.443Z,42.60
2018-03-23T00:18:00.033Z,42.60
2018-03-23T00:20:27.584Z,36.70
2018-03-23T00:22:55.169Z,43.72
2018-03-23T00:25:23.531Z,42.27
2018-03-23T00:27:51.110Z,39.10
2018-03-23T00:30:18.703Z,41.60
2018-03-23T00:32:46.270Z,34.70
2018-03-23T00:35:14.590Z,40.13
2018-03-23T00:37:42.156Z,42.40
2018-03-23T00:40:10.050Z,40.43
2018-03-23T00:42:38.366Z,42.50
2018-03-23T00:45:06.685Z,45.13
2018-03-23T00:47:34.634Z,47.47
2018-03-23T00:50:02.215Z,49.37
2018-03-23T00:52:29.785Z,43.50
2018-03-23T00:54:58.239Z,45.70
2018-03-23T00:57:26.603Z,43.90
2018-03-23T00:59:54.138Z,49.27
2018-03-23T01:02:22.051Z,44.57
2018-03-23T01:04:49.618Z,40.53
2018-03-23T01:07:17.176Z,44.33
2018-03-23T01:09:44.821Z,42.80
2018-03-23T01:12:12.357Z,41.13
2018-03-23T01:14:39.902Z,43.20
2018-03-23T01:17:07.506Z,45.80
2018-03-23T01:19:35.514Z,45.80
2018-03-23T01:22:03.439Z,43.60
2018-03-23T01:24:31.026Z,49.10
2018-03-23T01:26:58.581Z,46.17
2018-03-23T01:29:26.194Z,48.17
2018-03-23T01:31:53.745Z,44.83
2018-03-23T01:34:21.298Z,50.43
2018-03-23T01:36:48.873Z,53.97
2018-03-23T01:39:16.448Z,45.13
2018-03-23T01:41:44.055Z,49.40
2018-03-23T01:44:11.642Z,46.50
2018-03-23T01:46:39.319Z,47.73
2018-03-23T01:49:07.264Z,45.83
2018-03-23T01:51:35.650Z,47.13
2018-03-23T01:54:03.464Z,49.38
2018-03-23T01:56:31.051Z,48.67
2018-03-23T01:58:58.625Z,51.10
2018-03-23T02:01:26.273Z,53.72
2018-03-23T02:03:54.564Z,49.87
2018-03-23T02:06:22.167Z,55.30
2018-03-23T02:08:49.727Z,47.17
2018-03-23T02:11:17.352Z,47.87
2018-03-23T02:13:44.914Z,54.20
2018-03-23T02:16:12.557Z,50.65
2018-03-23T02:18:40.130Z,51.37
2018-03-23T02:21:13.986Z,49.07
2018-03-23T02:23:41.604Z,48.83
2018-03-23T02:26:09.923Z,43.03
2018-03-23T02:28:38.277Z,47.77
2018-03-23T02:31:06.680Z,48.87
2018-03-23T02:33:34.250Z,47.97
2018-03-23T02:36:02.574Z,47.47
2018-03-23T02:38:30.203Z,44.77
2018-03-23T02:40:57.768Z,49.13
2018-03-23T02:43:26.183Z,46.13
2018-03-23T02:45:54.490Z,53.47
2018-03-23T02:48:23.033Z,44.13
2018-03-23T02:50:50.609Z,46.57
2018-03-23T02:53:18.931Z,45.13
2018-03-23T02:55:46.516Z,47.80
2018-03-23T02:58:14.088Z,43.80
2018-03-23T03:00:42.437Z,44.70
2018-03-23T03:03:09.974Z,47.67
2018-03-23T03:05:38.377Z,44.33
2018-03-23T03:08:06.823Z,44.78
2018-03-23T03:10:34.362Z,45.43
2018-03-23T03:13:01.994Z,51.07
2018-03-23T03:15:30.304Z,48.37
2018-03-23T03:17:57.898Z,41.87
2018-03-23T03:20:26.212Z,50.17
2018-03-23T03:22:53.790Z,47.10
2018-03-23T03:25:22.106Z,48.60
2018-03-23T03:27:49.790Z,53.70
2018-03-23T03:30:18.102Z,50.63
2018-03-23T03:32:46.451Z,48.67
2018-03-23T03:35:14.018Z,49.30
2018-03-23T03:37:41.562Z,47.17
2018-03-23T03:40:09.146Z,46.57
2018-03-23T03:42:37.727Z,48.23
2018-03-23T03:45:06.684Z,53.40
2018-03-23T03:47:35.001Z,47.63
2018-03-23T03:50:04.090Z,52.97
2018-03-23T03:52:31.681Z,48.70
2018-03-23T03:54:59.989Z,53.27
2018-03-23T03:57:27.572Z,53.00
2018-03-23T03:59:55.103Z,51.67
2018-03-23T04:02:22.676Z,57.57
2018-03-23T04:04:50.229Z,47.40
2018-03-23T04:07:17.845Z,56.70
2018-03-23T04:09:45.406Z,51.50
2018-03-23T04:12:13.054Z,51.30
2018-03-23T04:14:41.365Z,49.70
2018-03-23T04:17:08.920Z,50.40
2018-03-23T04:19:37.433Z,57.47
2018-03-23T04:22:04.949Z,51.83
2018-03-23T04:24:32.529Z,56.17
2018-03-23T04:27:00.108Z,53.17
2018-03-23T04:29:28.475Z,56.00
2018-03-23T04:31:56.023Z,49.90
2018-03-23T04:34:23.582Z,50.37
2018-03-23T04:36:51.219Z,48.57
2018-03-23T04:39:18.763Z,51.30
2018-03-23T04:41:47.196Z,51.53
2018-03-23T04:44:14.733Z,49.00
2018-03-23T04:46:42.299Z,50.13
2018-03-23T04:49:09.844Z,49.77
2018-03-23T04:51:37.871Z,62.22
2018-03-23T04:54:05.757Z,57.53
2018-03-23T04:56:34.101Z,57.13
2018-03-23T04:59:01.688Z,60.90
2018-03-23T05:01:29.267Z,55.12
2018-03-23T05:03:56.857Z,61.65
2018-03-23T05:06:25.243Z,56.07
2018-03-23T05:08:53.598Z,59.63
2018-03-23T05:11:21.931Z,64.55
2018-03-23T05:13:49.515Z,58.53
2018-03-23T05:16:17.069Z,63.95
2018-03-23T05:18:44.760Z,65.60
2018-03-23T05:21:13.110Z,64.90
2018-03-23T05:23:40.659Z,59.28
2018-03-23T05:26:08.271Z,59.77
2018-03-23T05:28:36.484Z,61.55
2018-03-23T05:31:04.070Z,64.57
2018-03-23T05:33:31.637Z,63.93
2018-03-23T05:35:59.278Z,64.85
2018-03-23T05:38:26.832Z,62.20
2018-03-23T05:40:54.749Z,63.77
2018-03-23T05:43:22.318Z,61.63
2018-03-23T05:45:49.878Z,75.17
2018-03-23T05:48:17.439Z,64.65
2018-03-23T05:50:44.995Z,61.40
2018-03-23T05:53:13.360Z,54.43
2018-03-23T05:55:40.906Z,60.38
2018-03-23T05:58:08.481Z,61.07
2018-03-23T06:00:36.572Z,63.47
2018-03-23T06:03:04.258Z,56.10
2018-03-23T06:05:31.810Z,56.60
2018-03-23T06:07:59.401Z,58.33
2018-03-23T06:10:26.991Z,60.90
2018-03-23T06:12:54.625Z,52.83
2018-03-23T06:15:22.183Z,51.50
2018-03-23T06:17:49.774Z,52.57
2018-03-23T06:20:18.248Z,49.90
2018-03-23T06:22:45.844Z,50.07
2018-03-23T06:25:13.403Z,48.57
2018-03-23T06:27:40.997Z,46.73
2018-03-23T06:30:08.600Z,44.20
2018-03-23T06:32:37.712Z,46.63
2018-03-23T06:35:05.632Z,45.57
2018-03-23T06:37:33.982Z,42.67
2018-03-23T06:40:01.588Z,41.67
2018-03-23T06:42:29.196Z,41.97
2018-03-23T06:44:57.580Z,45.53
2018-03-23T06:47:25.226Z,47.73
2018-03-23T06:49:52.814Z,47.50
2018-03-23T06:52:20.368Z,48.23
2018-03-23T06:54:48.714Z,40.10
2018-03-23T06:57:16.270Z,44.20
2018-03-23T06:59:43.914Z,45.77
2018-03-23T07:02:11.570Z,47.73
2018-03-23T07:04:39.922Z,48.57
2018-03-23T07:07:08.262Z,47.37
2018-03-23T07:09:37.363Z,47.33
2018-03-23T07:14:57.793Z,48.13
2018-03-23T07:17:26.174Z,47.03
2018-03-23T07:19:53.750Z,47.03
2018-03-23T07:25:07.782Z,46.43
2018-03-23T07:27:35.695Z,44.13
2018-03-23T07:30:03.374Z,40.27
2018-03-23T07:32:31.021Z,43.57
2018-03-23T07:34:58.592Z,48.70
2018-03-23T07:37:26.902Z,45.37
2018-03-23T07:39:54.595Z,46.63
2018-03-23T07:42:22.939Z,46.03
2018-03-23T07:44:50.498Z,43.20
2018-03-23T07:47:18.847Z,45.17
2018-03-23T07:49:46.408Z,44.33
2018-03-23T07:52:14.008Z,45.17
2018-03-23T07:54:41.605Z,45.00
2018-03-23T07:57:09.175Z,44.57
2018-03-23T07:59:37.740Z,51.10
2018-03-23T08:02:07.040Z,54.03
2018-03-23T08:04:34.696Z,51.57
2018-03-23T08:07:02.362Z,54.00
2018-03-23T08:09:30.256Z,48.60
2018-03-23T08:11:57.848Z,43.40
2018-03-23T08:14:25.448Z,47.30
2018-03-23T08:16:53.040Z,57.20
2018-03-23T08:19:20.668Z,49.73
2018-03-23T08:21:48.215Z,46.80
2018-03-23T08:24:15.756Z,43.77
2018-03-23T08:26:43.324Z,51.90
2018-03-23T08:29:10.891Z,43.80
2018-03-23T08:31:39.256Z,46.50
2018-03-23T08:34:07.672Z,44.27
2018-03-23T08:36:35.721Z,43.87
2018-03-23T08:39:03.309Z,43.87
2018-03-23T08:41:31.007Z,41.13
2018-03-23T08:43:58.591Z,45.60
2018-03-23T08:46:26.168Z,42.67
2018-03-23T08:48:53.756Z,40.30
2018-03-23T08:51:21.329Z,38.37
2018-03-23T08:53:48.971Z,34.60
2018-03-23T08:56:16.542Z,39.50
2018-03-23T08:58:44.111Z,38.90
2018-03-23T09:01:12.476Z,39.23
2018-03-23T09:03:40.374Z,48.00
2018-03-23T09:06:08.015Z,39.50
2018-03-23T09:08:36.312Z,37.30
2018-03-23T09:11:03.967Z,42.90
2018-03-23T09:13:31.605Z,44.03
2018-03-23T09:15:59.296Z,36.53
2018-03-23T09:18:26.880Z,42.00
2018-03-23T09:20:54.546Z,37.90
2018-03-23T09:23:22.855Z,40.83
2018-03-23T09:25:50.591Z,40.40
2018-03-23T09:28:18.170Z,37.60
2018-03-23T09:30:45.791Z,38.47
2018-03-23T09:33:13.330Z,37.30
2018-03-23T09:35:41.773Z,35.23
2018-03-23T09:38:10.153Z,37.53
2018-03-23T09:40:38.775Z,40.93
2018-03-23T09:43:08.343Z,35.00
2018-03-23T09:45:38.092Z,36.33
2018-03-23T09:48:06.432Z,38.17
2018-03-23T09:50:34.130Z,31.60
2018-03-23T09:53:01.827Z,35.13
2018-03-23T09:58:34.689Z,35.80
2018-03-23T10:01:02.275Z,35.70
2018-03-23T10:03:29.910Z,33.33
2018-03-23T10:05:57.751Z,33.10
2018-03-23T10:08:26.280Z,29.80
2018-03-23T10:10:53.916Z,30.03
2018-03-23T10:13:21.489Z,29.23
2018-03-23T10:15:49.836Z,29.23
2018-03-23T10:18:17.456Z,31.50
2018-03-23T10:20:45.798Z,26.70
2018-03-23T10:23:13.370Z,28.27
2018-03-23T10:25:41.776Z,30.43
2018-03-23T10:28:09.363Z,31.20
2018-03-23T10:30:37.832Z,31.23
2018-03-23T10:33:06.783Z,32.03
2018-03-23T10:35:35.820Z,30.70
2018-03-23T10:38:03.851Z,28.50
2018-03-23T10:40:31.499Z,30.53
2018-03-23T10:43:00.009Z,31.30
2018-03-23T10:45:27.611Z,28.00
2018-03-23T10:47:55.187Z,30.10
2018-03-23T10:50:23.574Z,30.53
2018-03-23T10:52:51.895Z,28.17
2018-03-23T10:55:20.276Z,27.60
2018-03-23T10:57:47.859Z,27.60
2018-03-23T11:00:15.459Z,29.73
2018-03-23T11:02:48.730Z,32.43
2018-03-23T11:05:16.326Z,27.37
2018-03-23T11:07:43.900Z,29.30
2018-03-23T11:10:12.235Z,30.30
2018-03-23T11:12:39.861Z,29.67
2018-03-23T11:15:08.020Z,28.93
2018-03-23T11:17:36.313Z,24.33
2018-03-23T11:20:04.823Z,25.50
2018-03-23T11:22:33.222Z,26.37
2018-03-23T11:25:01.601Z,29.73
2018-03-23T11:27:29.297Z,30.10
2018-03-23T11:29:57.057Z,24.50
2018-03-23T11:32:24.671Z,25.70
2018-03-23T11:34:52.269Z,28.97
2018-03-23T11:37:20.601Z,23.27
2018-03-23T11:39:48.555Z,25.70
2018-03-23T11:42:17.171Z,28.60
2018-03-23T11:44:45.137Z,23.77
2018-03-23T11:47:12.736Z,33.80
2018-03-23T11:49:40.764Z,23.13
2018-03-23T11:52:08.408Z,24.90
2018-03-23T11:54:36.882Z,26.53
2018-03-23T11:57:04.499Z,26.30
2018-03-23T11:59:32.839Z,28.03
2018-03-23T12:02:00.456Z,25.63
2018-03-23T12:04:28.034Z,25.80
2018-03-23T12:06:55.951Z,33.27
2018-03-23T12:09:23.579Z,29.33
2018-03-23T12:11:51.163Z,28.93
2018-03-23T12:14:19.554Z,26.80
2018-03-23T12:16:47.068Z,28.40
2018-03-23T12:19:15.472Z,28.43
2018-03-23T12:21:43.065Z,29.10
2018-03-23T12:24:11.500Z,27.83
2018-03-23T12:26:39.650Z,32.10
2018-03-23T12:29:08.755Z,29.00
2018-03-23T12:31:36.861Z,29.70
2018-03-23T12:34:04.479Z,29.43
2018-03-23T12:36:32.055Z,28.47
2018-03-23T12:38:59.774Z,28.80
2018-03-23T12:41:28.171Z,24.77
2018-03-23T12:43:56.565Z,31.20
2018-03-23T12:46:24.241Z,26.27
2018-03-23T12:48:51.858Z,30.37
2018-03-23T12:51:20.090Z,28.40
2018-03-23T12:53:47.753Z,27.33
2018-03-23T12:56:15.358Z,26.83
2018-03-23T12:58:42.934Z,24.87
2018-03-23T13:01:10.515Z,33.73
2018-03-23T13:03:38.292Z,29.93
2018-03-23T13:06:06.981Z,25.13
2018-03-23T13:08:34.587Z,33.50
2018-03-23T13:11:02.903Z,41.93
2018-03-23T13:13:31.285Z,29.00
2018-03-23T13:15:58.905Z,29.50
2018-03-23T13:18:26.493Z,30.67
2018-03-23T13:20:54.065Z,32.33
2018-03-23T13:23:21.651Z,49.07
2018-03-23T13:25:49.241Z,34.30
2018-03-23T13:28:16.836Z,37.87
2018-03-23T13:30:44.433Z,52.93
2018-03-23T13:33:11.971Z,52.20
2018-03-23T13:35:39.525Z,36.60
2018-03-23T13:38:08.194Z,31.03
2018-03-23T13:40:36.833Z,29.47
2018-03-23T13:43:05.641Z,38.90
2018-03-23T13:45:33.216Z,42.73
2018-03-23T13:48:00.816Z,38.50
2018-03-23T13:50:28.421Z,33.43
2018-03-23T13:52:56.053Z,39.47
2018-03-23T13:55:23.784Z,31.90
2018-03-23T13:57:52.111Z,29.00
2018-03-23T14:00:26.140Z,30.60
2018-03-23T14:02:53.703Z,24.53
2018-03-23T14:05:21.275Z,25.60
2018-03-23T14:07:49.661Z,29.87
2018-03-23T14:10:17.568Z,25.03
2018-03-23T14:12:45.946Z,33.30
2018-03-23T14:15:13.556Z,33.43
2018-03-23T14:17:41.201Z,25.73
2018-03-23T14:20:08.804Z,25.20
2018-03-23T14:22:37.023Z,32.13
2018-03-23T14:25:04.574Z,32.33
2018-03-23T14:27:32.171Z,23.03
2018-03-23T14:29:59.740Z,30.57
2018-03-23T14:32:27.366Z,29.53
2018-03-23T14:34:54.942Z,28.73
2018-03-23T14:37:22.483Z,20.77
2018-03-23T14:39:50.089Z,22.43
2018-03-23T14:42:17.723Z,23.70
2018-03-23T14:44:45.323Z,26.43
2018-03-23T14:47:13.660Z,23.97
2018-03-23T14:49:41.314Z,23.13
2018-03-23T14:52:08.986Z,27.20
2018-03-23T14:54:37.869Z,24.90
2018-03-23T14:57:05.681Z,21.10
2018-03-23T14:59:34.416Z,20.20
2018-03-23T15:02:02.016Z,27.33
2018-03-23T15:04:29.638Z,39.13
2018-03-23T15:06:57.211Z,19.83
2018-03-23T15:09:24.860Z,34.53
2018-03-23T15:11:52.402Z,25.63
2018-03-23T15:14:20.020Z,26.27
2018-03-23T15:16:47.635Z,26.20
2018-03-23T15:19:15.572Z,22.90
2018-03-23T15:21:43.163Z,24.10
2018-03-23T15:24:10.731Z,22.57
2018-03-23T15:26:39.091Z,22.93
2018-03-23T15:29:08.818Z,21.27
2018-03-23T15:31:36.964Z,25.43
2018-03-23T15:34:04.582Z,18.90
2018-03-23T15:36:32.947Z,24.20
2018-03-23T15:39:01.281Z,25.27
2018-03-23T15:41:29.424Z,20.53
2018-03-23T15:43:56.997Z,23.77
2018-03-23T15:46:25.354Z,21.10
2018-03-23T15:48:53.653Z,22.07
2018-03-23T15:51:21.590Z,26.30
2018-03-23T15:53:49.146Z,26.00
2018-03-23T15:56:17.693Z,21.03
2018-03-23T15:58:45.326Z,19.13
2018-03-23T16:01:13.883Z,24.80
2018-03-23T16:03:42.664Z,25.30
2018-03-23T16:06:11.001Z,22.67
2018-03-23T16:08:39.537Z,23.30
2018-03-23T16:11:08.777Z,27.00
2018-03-23T16:13:36.853Z,19.77
2018-03-23T16:16:04.513Z,27.93
2018-03-23T16:18:32.352Z,23.03
2018-03-23T16:21:00.781Z,29.27
2018-03-23T16:23:28.398Z,26.63
2018-03-23T16:25:55.995Z,19.33
2018-03-23T16:28:23.570Z,23.00
2018-03-23T16:30:51.206Z,27.83
2018-03-23T16:33:18.834Z,23.93
2018-03-23T16:35:46.412Z,21.70
2018-03-23T16:38:14.035Z,26.47
2018-03-23T16:40:41.665Z,26.63
2018-03-23T16:43:09.591Z,25.17
2018-03-23T16:45:38.092Z,23.10
2018-03-23T16:48:06.595Z,26.20
2018-03-23T16:50:34.902Z,24.67
2018-03-23T16:53:02.899Z,29.80
2018-03-23T16:55:30.493Z,23.90
2018-03-23T16:57:58.062Z,24.37
2018-03-23T17:00:25.682Z,26.60
2018-03-23T17:02:54.051Z,22.70
2018-03-23T17:05:22.417Z,37.50
2018-03-23T17:07:49.989Z,21.97
2018-03-23T17:10:17.612Z,31.83
2018-03-23T17:12:45.240Z,34.27
2018-03-23T17:15:12.886Z,28.37
2018-03-23T17:17:41.337Z,28.17
2018-03-23T17:20:09.226Z,29.83
2018-03-23T17:22:37.434Z,23.67
2018-03-23T17:25:05.673Z,26.83
2018-03-23T17:27:33.300Z,26.70
2018-03-23T17:30:00.871Z,25.57
2018-03-23T17:32:29.235Z,28.43
2018-03-23T17:34:57.675Z,24.03
2018-03-23T17:37:25.562Z,32.13
2018-03-23T17:39:53.139Z,22.60
2018-03-23T17:42:20.740Z,25.33
2018-03-23T17:44:48.321Z,29.30
2018-03-23T17:47:16.297Z,21.73
2018-03-23T17:49:43.935Z,30.60
2018-03-23T17:52:11.630Z,32.00
2018-03-23T17:54:39.232Z,29.27
2018-03-23T17:57:07.806Z,25.40
2018-03-23T17:59:35.648Z,28.50
2018-03-23T18:02:03.282Z,29.77
2018-03-23T18:04:31.686Z,30.00
2018-03-23T18:06:59.259Z,30.70
2018-03-23T18:09:28.038Z,25.17
2018-03-23T18:11:55.669Z,26.67
2018-03-23T18:14:23.250Z,25.80
2018-03-23T18:16:50.895Z,27.63
2018-03-23T18:19:18.557Z,30.80
2018-03-23T18:21:47.022Z,38.50
2018-03-23T18:24:14.606Z,40.43
2018-03-23T18:29:13.023Z,32.93
2018-03-23T18:31:41.409Z,38.50
2018-03-23T18:34:09.037Z,30.07
2018-03-23T18:36:37.708Z,30.47
2018-03-23T18:39:05.680Z,30.80
2018-03-23T18:41:34.039Z,35.13
2018-03-23T18:44:01.642Z,28.43
2018-03-23T18:46:29.268Z,25.67
2018-03-23T18:48:56.856Z,26.03
2018-03-23T18:51:24.480Z,31.07
2018-03-23T18:53:52.219Z,31.00
2018-03-23T18:56:19.803Z,24.97
2018-03-23T18:58:48.203Z,27.30
2018-03-23T19:01:15.811Z,39.83
2018-03-23T19:03:43.418Z,24.63
2018-03-23T19:06:11.777Z,30.17
2018-03-23T19:08:40.208Z,26.57
2018-03-23T19:11:09.274Z,25.40
2018-03-23T19:13:37.340Z,26.93
2018-03-23T19:16:06.543Z,25.00
2018-03-23T19:18:34.962Z,29.30
2018-03-23T19:21:03.824Z,34.00
2018-03-23T19:23:31.465Z,32.43
2018-03-23T19:25:59.039Z,36.80
2018-03-23T19:28:27.407Z,31.00
2018-03-23T19:30:55.035Z,34.07
2018-03-23T19:33:22.605Z,39.40
2018-03-23T19:35:50.213Z,37.10
2018-03-23T19:38:17.846Z,35.70
2018-03-23T19:40:45.474Z,33.77
2018-03-23T19:43:13.162Z,33.07
2018-03-23T19:45:40.752Z,34.70
2018-03-23T19:48:08.361Z,33.27
2018-03-23T19:50:36.676Z,33.17
2018-03-23T19:53:04.456Z,36.70
2018-03-23T19:55:32.817Z,29.87
2018-03-23T19:58:01.142Z,34.33
2018-03-23T20:00:28.818Z,34.70
2018-03-23T20:02:56.492Z,32.90
2018-03-23T20:05:24.188Z,27.40
2018-03-23T20:07:52.553Z,30.73
2018-03-23T20:10:20.264Z,30.87
2018-03-23T20:12:47.899Z,36.00
2018-03-23T20:15:16.258Z,29.57
2018-03-23T20:17:50.402Z,36.60
2018-03-23T20:20:23.624Z,31.07
2018-03-23T20:22:51.272Z,29.40
2018-03-23T20:25:19.621Z,34.40
2018-03-23T20:27:53.281Z,44.13
2018-03-23T20:30:20.848Z,31.37
2018-03-23T20:32:48.414Z,38.03
2018-03-23T20:35:16.017Z,54.53
2018-03-23T20:37:44.377Z,34.47
2018-03-23T20:40:12.724Z,41.33
2018-03-23T20:42:40.282Z,33.97
2018-03-23T20:45:07.886Z,36.10
2018-03-23T20:47:35.472Z,36.53
2018-03-23T20:50:03.238Z,29.87
2018-03-23T20:52:30.857Z,32.43
2018-03-23T20:54:59.201Z,31.20
2018-03-23T20:57:27.648Z,34.97
2018-03-23T20:59:55.245Z,34.90
2018-03-23T21:02:22.857Z,34.50
2018-03-23T21:04:50.600Z,28.00
2018-03-23T21:07:18.226Z,30.80
2018-03-23T21:09:45.835Z,29.20
2018-03-23T21:12:14.163Z,32.60
2018-03-23T21:14:41.764Z,29.90
2018-03-23T21:17:09.331Z,30.67
2018-03-23T21:19:36.920Z,37.60
2018-03-23T21:22:05.409Z,32.20
2018-03-23T21:24:33.027Z,28.00
2018-03-23T21:27:00.611Z,28.43
2018-03-23T21:29:29.642Z,29.70
2018-03-23T21:31:58.224Z,29.47
2018-03-23T21:34:25.985Z,27.50
2018-03-23T21:36:54.326Z,28.00
2018-03-23T21:39:21.874Z,31.33
2018-03-23T21:41:50.248Z,30.00
2018-03-23T21:44:17.816Z,39.40
2018-03-23T21:46:46.180Z,31.83
2018-03-23T21:49:13.767Z,29.70
2018-03-23T21:51:41.351Z,29.20
2018-03-23T21:54:09.306Z,28.40
2018-03-23T21:56:37.648Z,29.67
2018-03-23T21:59:05.259Z,31.50
2018-03-23T22:01:32.912Z,29.90
2018-03-23T22:04:00.472Z,30.23
2018-03-23T22:06:29.455Z,28.70
2018-03-23T22:08:58.615Z,26.40
2018-03-23T22:11:28.740Z,36.67
2018-03-23T22:13:56.806Z,28.87
2018-03-23T22:16:24.414Z,28.00
2018-03-23T22:18:51.983Z,27.17
2018-03-23T22:21:19.634Z,26.93
2018-03-23T22:23:47.259Z,25.17
2018-03-23T22:26:14.815Z,28.30
2018-03-23T22:28:42.404Z,23.80
2018-03-23T22:31:09.960Z,24.07
2018-03-23T22:33:37.983Z,31.83
2018-03-23T22:36:05.550Z,34.87
2018-03-23T22:38:33.176Z,25.40
2018-03-23T22:41:00.789Z,22.13
2018-03-23T22:43:29.250Z,22.10
2018-03-23T22:45:57.629Z,22.10
2018-03-23T22:48:25.929Z,27.97
2018-03-23T22:50:53.639Z,25.30
2018-03-23T22:53:22.061Z,22.70
2018-03-23T22:55:49.665Z,24.03
2018-03-23T22:58:17.666Z,21.50
2018-03-23T23:00:45.252Z,24.47
2018-03-23T23:03:12.863Z,29.20
2018-03-23T23:05:40.425Z,24.43
2018-03-23T23:08:08.025Z,25.97
2018-03-23T23:10:35.580Z,21.80
2018-03-23T23:13:03.232Z,24.53
2018-03-23T23:15:30.849Z,25.97
2018-03-23T23:17:59.257Z,26.47
2018-03-23T23:20:27.530Z,25.97
2018-03-23T23:22:55.996Z,26.77
2018-03-23T23:25:23.575Z,27.37
2018-03-23T23:27:51.928Z,28.00
2018-03-23T23:30:20.284Z,29.93
2018-03-23T23:32:48.634Z,29.83
2018-03-23T23:35:24.015Z,29.60
2018-03-23T23:37:52.159Z,29.90
2018-03-23T23:40:19.792Z,34.43
2018-03-23T23:42:47.347Z,34.07
2018-03-23T23:45:14.985Z,35.33
2018-03-23T23:47:42.590Z,34.27
2018-03-23T23:50:10.242Z,37.70
2018-03-23T23:52:38.212Z,34.07
2018-03-23T23:55:05.850Z,33.30
2018-03-23T23:57:33.401Z,34.20
